Terminal Aerodrome Forecast
Issued by NWS Amarillo, TX

Home | Current Version | Previous Version | Text Only | Print | Product List | Glossary On
Versions: 1 2 3 4 5 6 7 8 9 10 11 12
000
FTUS44 KAMA 230539
TAFDHT
TAF
KDHT 230539Z 2306/2406 33011KT P6SM SCT110 BKN250
      TEMPO 2306/2308 -SHRA BKN100
     FM231800 04012KT P6SM SCT200 PROB30 2320/2402 6SM TSRA
      BKN070CB=

USA.gov is the U.S. government's official web portal to all federal, state and local government web resources and services.